createdAt,value
2018-07-09T00:01:34.227Z,99.90
2018-07-09T00:04:03.224Z,99.90
2018-07-09T00:06:32.207Z,99.90
2018-07-09T00:09:01.203Z,99.90
2018-07-09T00:11:30.947Z,99.90
2018-07-09T00:13:59.993Z,99.90
2018-07-09T00:16:29.045Z,99.90
2018-07-09T00:18:58.795Z,99.90
2018-07-09T00:21:27.842Z,99.90
2018-07-09T00:26:25.491Z,99.90
2018-07-09T00:28:54.445Z,99.90
2018-07-09T00:33:52.123Z,99.90
2018-07-09T00:36:21.141Z,99.90
2018-07-09T00:38:50.246Z,99.90
2018-07-09T00:41:19.310Z,99.90
2018-07-09T00:43:48.429Z,99.90
2018-07-09T00:46:17.696Z,99.90
2018-07-09T00:48:46.947Z,99.90
2018-07-09T00:51:16.051Z,99.90
2018-07-09T00:53:45.127Z,99.90
2018-07-09T00:56:14.344Z,99.90
2018-07-09T00:58:43.315Z,99.90
2018-07-09T01:01:12.288Z,99.90
2018-07-09T01:03:41.294Z,99.90
2018-07-09T01:06:10.324Z,99.90
2018-07-09T01:16:15.317Z,99.90
2018-07-09T01:18:44.287Z,99.90
2018-07-09T01:21:14.390Z,99.90
2018-07-09T01:23:43.382Z,99.90
2018-07-09T01:26:12.380Z,99.90
2018-07-09T01:28:42.134Z,99.90
2018-07-09T01:31:11.085Z,99.90
2018-07-09T01:33:40.119Z,99.90
2018-07-09T01:38:39.065Z,99.90
2018-07-09T01:41:08.105Z,99.90
2018-07-09T01:43:37.041Z,99.90
2018-07-09T01:48:34.784Z,99.90
2018-07-09T01:51:03.744Z,99.90
2018-07-09T01:56:01.338Z,99.90
2018-07-09T01:58:30.433Z,99.90
2018-07-09T02:01:00.092Z,99.90
2018-07-09T02:03:29.088Z,99.90
2018-07-09T02:05:58.228Z,99.90
2018-07-09T02:08:27.439Z,99.90
2018-07-09T02:10:56.467Z,99.90
2018-07-09T02:13:25.534Z,99.90
2018-07-09T02:15:54.529Z,99.90
2018-07-09T02:18:23.550Z,99.90
2018-07-09T02:20:52.635Z,99.90
2018-07-09T02:23:21.799Z,99.90
2018-07-09T02:25:50.919Z,99.90
2018-07-09T02:30:49.113Z,99.90
2018-07-09T02:33:18.229Z,99.90
2018-07-09T02:35:47.331Z,99.90
2018-07-09T02:38:16.358Z,99.90
2018-07-09T02:40:46.268Z,99.90
2018-07-09T02:43:15.266Z,99.90
2018-07-09T02:48:12.917Z,99.90
2018-07-09T02:50:41.936Z,99.90
2018-07-09T02:55:39.587Z,99.90
2018-07-09T02:58:08.566Z,99.90
2018-07-09T03:03:06.419Z,99.90
2018-07-09T03:05:35.497Z,99.90
2018-07-09T03:08:04.631Z,99.90
2018-07-09T03:10:33.844Z,99.90
2018-07-09T03:13:02.951Z,99.90
2018-07-09T03:15:32.016Z,99.90
2018-07-09T03:18:01.495Z,99.90
2018-07-09T03:20:30.464Z,99.90
2018-07-09T03:22:59.468Z,99.90
2018-07-09T03:25:28.437Z,99.90
2018-07-09T03:27:57.417Z,99.90
2018-07-09T03:30:26.796Z,99.90
2018-07-09T03:32:55.918Z,99.90
2018-07-09T03:35:25.170Z,99.90
2018-07-09T03:37:54.227Z,99.90
2018-07-09T03:40:23.318Z,99.90
2018-07-09T03:42:52.332Z,99.90
2018-07-09T03:45:21.356Z,99.90
2018-07-09T03:50:19.020Z,99.90
2018-07-09T03:52:48.135Z,99.90
2018-07-09T03:55:17.142Z,99.90
2018-07-09T03:57:46.242Z,99.90
2018-07-09T04:00:15.345Z,99.90
2018-07-09T04:02:45.025Z,99.90
2018-07-09T04:05:14.191Z,99.90
2018-07-09T04:07:43.183Z,99.90
2018-07-09T04:10:12.189Z,99.90
2018-07-09T04:12:41.321Z,99.90
2018-07-09T04:15:10.355Z,99.90
2018-07-09T04:17:39.364Z,99.90
2018-07-09T04:20:08.347Z,99.90
2018-07-09T04:22:37.323Z,99.90
2018-07-09T04:25:06.286Z,99.90
2018-07-09T04:27:35.230Z,99.90
2018-07-09T04:32:32.846Z,99.90
2018-07-09T04:35:02.023Z,99.90
2018-07-09T04:37:31.104Z,99.90
2018-07-09T04:40:00.147Z,99.90
2018-07-09T04:44:57.916Z,99.90
2018-07-09T04:47:27.139Z,99.90
2018-07-09T04:49:56.205Z,99.90
2018-07-09T04:52:25.156Z,99.90
2018-07-09T04:57:22.802Z,99.90
2018-07-09T04:59:51.961Z,99.90
2018-07-09T05:04:49.650Z,99.90
2018-07-09T05:07:18.724Z,99.90
2018-07-09T05:09:48.043Z,99.90
2018-07-09T05:12:17.271Z,99.90
2018-07-09T05:14:46.497Z,99.90
2018-07-09T05:17:16.282Z,99.90
2018-07-09T05:19:45.315Z,99.90
2018-07-09T05:22:14.328Z,99.90
2018-07-09T05:27:12.699Z,99.90
2018-07-09T05:29:41.691Z,99.90
2018-07-09T05:32:10.664Z,99.90
2018-07-09T05:34:39.655Z,99.90
2018-07-09T05:37:08.688Z,99.90
2018-07-09T05:39:38.323Z,99.90
2018-07-09T05:42:07.332Z,99.90
2018-07-09T05:44:37.009Z,99.90
2018-07-09T05:47:06.059Z,99.90
2018-07-09T05:49:35.052Z,99.90
2018-07-09T05:52:04.023Z,99.90
2018-07-09T05:54:33.103Z,99.90
2018-07-09T05:59:30.835Z,99.90
2018-07-09T06:01:59.831Z,99.90
2018-07-09T06:04:28.815Z,99.90
2018-07-09T06:06:57.806Z,99.90
2018-07-09T06:09:26.808Z,99.90
2018-07-09T06:11:55.859Z,99.90
2018-07-09T06:14:24.912Z,99.90
2018-07-09T06:16:53.907Z,99.90
2018-07-09T06:19:22.985Z,99.90
2018-07-09T06:24:20.815Z,99.90
2018-07-09T06:26:49.862Z,99.90
2018-07-09T06:31:47.652Z,99.90
2018-07-09T06:34:16.654Z,99.90
2018-07-09T06:36:45.813Z,99.90
2018-07-09T06:39:15.675Z,99.90
2018-07-09T06:41:44.691Z,99.90
2018-07-09T06:44:13.756Z,99.90
2018-07-09T06:49:11.611Z,99.90
2018-07-09T06:51:40.649Z,99.90
2018-07-09T06:54:09.596Z,99.90
2018-07-09T06:56:38.563Z,99.90
2018-07-09T06:59:08.476Z,99.90
2018-07-09T07:01:37.498Z,99.90
2018-07-09T07:04:06.475Z,99.90
2018-07-09T07:06:35.491Z,99.90
2018-07-09T07:09:05.551Z,99.90
2018-07-09T07:11:35.007Z,99.90
2018-07-09T07:14:04.211Z,99.90
2018-07-09T07:16:33.464Z,99.90
2018-07-09T07:19:02.465Z,99.90
2018-07-09T07:21:31.770Z,99.90
2018-07-09T07:24:00.762Z,99.90
2018-07-09T07:26:29.774Z,99.90
2018-07-09T07:28:58.937Z,99.90
2018-07-09T07:31:28.707Z,99.90
2018-07-09T07:33:57.782Z,99.90
2018-07-09T07:36:26.962Z,99.90
2018-07-09T07:41:25.152Z,99.90
2018-07-09T07:46:22.843Z,99.90
2018-07-09T07:48:52.035Z,99.50
2018-07-09T07:51:21.059Z,99.90
2018-07-09T07:53:50.101Z,99.90
2018-07-09T07:56:19.547Z,99.90
2018-07-09T07:58:49.468Z,99.90
2018-07-09T08:01:18.549Z,99.90
2018-07-09T08:03:47.700Z,99.90
2018-07-09T08:06:16.759Z,98.40
2018-07-09T08:08:45.735Z,97.40
2018-07-09T08:11:14.749Z,97.20
2018-07-09T08:16:12.380Z,98.70
2018-07-09T08:18:41.440Z,99.90
2018-07-09T08:21:10.443Z,99.90
2018-07-09T08:23:39.727Z,99.90
2018-07-09T08:26:08.808Z,99.90
2018-07-09T08:28:37.912Z,99.90
2018-07-09T08:31:07.278Z,99.90
2018-07-09T08:33:36.163Z,99.90
2018-07-09T08:36:05.242Z,99.90
2018-07-09T08:38:34.228Z,99.90
2018-07-09T08:41:04.036Z,99.90
2018-07-09T08:43:32.976Z,99.90
2018-07-09T08:46:01.989Z,99.90
2018-07-09T08:48:31.103Z,99.90
2018-07-09T08:55:58.780Z,99.90
2018-07-09T08:58:27.840Z,99.90
2018-07-09T09:05:55.052Z,99.90
2018-07-09T09:10:52.754Z,99.90
2018-07-09T09:15:50.610Z,99.90
2018-07-09T09:18:19.634Z,99.90
2018-07-09T09:20:48.735Z,99.90
2018-07-09T09:23:17.700Z,99.90
2018-07-09T09:25:46.892Z,99.90
2018-07-09T09:28:17.047Z,99.90
2018-07-09T09:30:46.094Z,99.90
2018-07-09T09:33:15.073Z,99.90
2018-07-09T09:35:44.123Z,99.90
2018-07-09T09:38:13.706Z,99.90
2018-07-09T09:40:42.671Z,99.90
2018-07-09T09:43:11.690Z,99.90
2018-07-09T09:45:40.639Z,99.90
2018-07-09T09:50:38.504Z,99.90
2018-07-09T09:53:08.205Z,99.90
2018-07-09T09:55:37.533Z,99.90
2018-07-09T09:58:07.223Z,99.90
2018-07-09T10:00:41.757Z,99.90
2018-07-09T10:03:10.854Z,99.90
2018-07-09T10:05:39.817Z,99.90
2018-07-09T10:08:09.251Z,99.90
2018-07-09T10:13:07.188Z,99.90
2018-07-09T10:15:36.175Z,99.90
2018-07-09T10:18:05.316Z,99.90
2018-07-09T10:20:34.323Z,99.90
2018-07-09T10:23:03.532Z,99.90
2018-07-09T10:28:01.350Z,99.90
2018-07-09T10:30:30.535Z,99.90
2018-07-09T10:32:59.555Z,99.90
2018-07-09T10:35:29.464Z,99.40
2018-07-09T10:37:58.444Z,99.10
2018-07-09T10:40:27.439Z,98.90
2018-07-09T10:42:56.404Z,99.90
2018-07-09T10:45:25.413Z,99.90
2018-07-09T10:47:54.732Z,98.70
2018-07-09T10:55:21.503Z,99.50
2018-07-09T10:57:50.584Z,99.80
2018-07-09T11:00:19.852Z,99.60
2018-07-09T11:05:17.772Z,99.10
2018-07-09T11:07:46.845Z,99.00
2018-07-09T11:10:15.790Z,99.90
2018-07-09T11:12:45.100Z,99.50
2018-07-09T11:15:14.055Z,99.50
2018-07-09T11:17:43.072Z,99.90
2018-07-09T11:20:12.051Z,99.90
2018-07-09T11:22:41.045Z,99.90
2018-07-09T11:25:10.015Z,99.90
2018-07-09T11:27:39.008Z,99.90
2018-07-09T11:30:08.048Z,99.90
2018-07-09T11:32:37.062Z,99.90
2018-07-09T11:35:06.050Z,99.90
2018-07-09T11:37:35.020Z,99.90
2018-07-09T11:40:04.003Z,99.90
2018-07-09T11:45:01.679Z,99.90
2018-07-09T11:47:31.254Z,99.90
2018-07-09T11:50:00.264Z,99.90
2018-07-09T11:52:29.292Z,99.90
2018-07-09T11:54:58.452Z,99.90
2018-07-09T11:57:27.651Z,99.90
2018-07-09T11:59:56.821Z,99.90
2018-07-09T12:02:25.913Z,99.90
2018-07-09T12:04:55.099Z,99.90
2018-07-09T12:07:24.064Z,99.90
2018-07-09T12:09:53.278Z,99.90
2018-07-09T12:17:19.727Z,99.90
2018-07-09T12:19:48.779Z,99.90
2018-07-09T12:29:43.916Z,99.90
2018-07-09T12:32:13.820Z,99.90
2018-07-09T12:34:42.849Z,99.90
2018-07-09T12:37:11.983Z,99.60
2018-07-09T12:39:40.963Z,99.70
2018-07-09T12:42:09.972Z,98.70
2018-07-09T12:44:39.238Z,98.70
2018-07-09T12:47:08.219Z,99.20
2018-07-09T12:52:05.964Z,99.40
2018-07-09T12:54:34.926Z,99.10
2018-07-09T12:57:03.932Z,99.60
2018-07-09T12:59:32.949Z,99.90
2018-07-09T13:02:01.939Z,99.90
2018-07-09T13:04:30.952Z,99.90
2018-07-09T13:07:00.140Z,99.90
2018-07-09T13:09:29.288Z,99.90
2018-07-09T13:14:27.466Z,99.90
2018-07-09T13:16:56.447Z,99.90
2018-07-09T13:21:54.096Z,99.90
2018-07-09T13:24:23.068Z,99.90
2018-07-09T13:26:52.100Z,99.90
2018-07-09T13:29:21.091Z,99.90
2018-07-09T13:31:50.212Z,99.90
2018-07-09T13:34:19.290Z,99.90
2018-07-09T13:36:48.916Z,99.90
2018-07-09T13:39:18.331Z,99.90
2018-07-09T13:41:47.984Z,99.90
2018-07-09T13:44:17.015Z,99.90
2018-07-09T13:46:46.077Z,99.90
2018-07-09T13:49:15.024Z,99.90
2018-07-09T13:54:12.684Z,99.90
2018-07-09T13:56:41.706Z,99.30
2018-07-09T13:59:10.666Z,99.50
2018-07-09T14:01:39.635Z,99.20
2018-07-09T14:06:37.723Z,98.60
2018-07-09T14:09:07.196Z,98.90
2018-07-09T14:11:36.176Z,99.20
2018-07-09T14:14:05.743Z,98.00
2018-07-09T14:16:34.717Z,98.50
2018-07-09T14:20:14.980Z,98.80
2018-07-09T14:22:43.976Z,99.10
2018-07-09T14:25:12.973Z,99.50
2018-07-09T14:30:10.991Z,99.90
2018-07-09T14:32:40.234Z,99.90
2018-07-09T14:35:09.447Z,99.90
2018-07-09T14:37:38.564Z,99.90
2018-07-09T14:40:07.689Z,99.90
2018-07-09T14:42:36.851Z,99.90
2018-07-09T14:45:06.035Z,99.90
2018-07-09T14:50:03.918Z,99.90
2018-07-09T14:55:01.570Z,99.90
2018-07-09T14:57:30.495Z,99.90
2018-07-09T15:02:28.203Z,99.90
2018-07-09T15:04:57.276Z,99.90
2018-07-09T15:07:26.278Z,99.90
2018-07-09T15:09:55.337Z,99.90
2018-07-09T15:14:53.080Z,99.90
2018-07-09T15:17:22.138Z,99.90
2018-07-09T15:22:19.876Z,99.90
2018-07-09T15:24:48.960Z,99.90
2018-07-09T15:27:18.025Z,99.90
2018-07-09T15:32:27.446Z,99.90
2018-07-09T15:37:25.276Z,99.90
2018-07-09T15:39:54.364Z,99.90
2018-07-09T15:42:23.386Z,99.90
2018-07-09T15:44:52.511Z,99.90
2018-07-09T15:47:21.583Z,99.90
2018-07-09T15:49:50.616Z,99.90
2018-07-09T15:52:19.800Z,99.90
2018-07-09T15:54:49.025Z,99.90
2018-07-09T15:57:18.248Z,99.90
2018-07-09T15:59:47.395Z,99.90
2018-07-09T16:02:16.977Z,99.90
2018-07-09T16:04:45.995Z,99.90
2018-07-09T16:07:14.986Z,99.90
2018-07-09T16:12:12.715Z,99.90
2018-07-09T16:14:41.762Z,99.90
2018-07-09T16:17:10.780Z,99.90
2018-07-09T16:22:08.559Z,99.90
2018-07-09T16:24:37.762Z,99.90
2018-07-09T16:27:06.877Z,99.90
2018-07-09T16:29:35.912Z,99.90
2018-07-09T16:34:33.762Z,99.90
2018-07-09T16:37:02.755Z,99.90
2018-07-09T16:39:31.760Z,99.90
2018-07-09T16:42:00.752Z,99.90
2018-07-09T16:44:29.816Z,99.90
2018-07-09T16:46:58.880Z,99.90
2018-07-09T16:49:27.884Z,99.90
2018-07-09T16:51:56.958Z,99.90
2018-07-09T16:54:25.935Z,99.90
2018-07-09T16:56:54.931Z,99.90
2018-07-09T16:59:23.916Z,99.90
2018-07-09T17:01:52.951Z,99.90
2018-07-09T17:04:21.904Z,99.90
2018-07-09T17:06:50.898Z,99.90
2018-07-09T17:09:20.366Z,99.90
2018-07-09T17:11:49.381Z,99.90
2018-07-09T17:14:18.399Z,99.90
2018-07-09T17:16:47.423Z,99.90
2018-07-09T17:21:46.155Z,99.90
2018-07-09T17:24:15.505Z,99.90
2018-07-09T17:26:44.621Z,99.90
2018-07-09T17:36:39.888Z,99.90
2018-07-09T17:39:08.960Z,99.90
2018-07-09T17:41:38.211Z,99.90
2018-07-09T17:46:36.829Z,99.90
2018-07-09T17:49:06.174Z,99.90
2018-07-09T17:51:35.241Z,99.90
2018-07-09T17:54:04.233Z,99.90
2018-07-09T17:56:33.242Z,99.90
2018-07-09T17:59:02.301Z,99.90
2018-07-09T18:01:31.317Z,99.90
2018-07-09T18:04:01.101Z,99.90
2018-07-09T18:06:30.823Z,99.90
2018-07-09T18:09:00.533Z,99.90
2018-07-09T18:11:29.590Z,99.90
2018-07-09T18:13:58.658Z,99.90
2018-07-09T18:16:29.158Z,99.90
2018-07-09T18:18:58.344Z,99.90
2018-07-09T18:21:27.738Z,99.90
2018-07-09T18:23:56.955Z,99.90
2018-07-09T18:28:55.247Z,99.90
2018-07-09T18:31:24.543Z,99.90
2018-07-09T18:33:54.255Z,99.90
2018-07-09T18:36:23.691Z,99.90
2018-07-09T18:38:52.893Z,99.90
2018-07-09T18:41:22.315Z,99.90
2018-07-09T18:43:52.227Z,99.90
2018-07-09T18:46:22.140Z,99.90
2018-07-09T18:48:51.349Z,99.90
2018-07-09T18:51:20.463Z,99.90
2018-07-09T18:53:49.556Z,99.90
2018-07-09T18:56:18.650Z,99.90
2018-07-09T18:58:47.978Z,99.90
2018-07-09T19:01:17.112Z,99.90
2018-07-09T19:03:46.595Z,99.90
2018-07-09T19:06:34.744Z,99.90
2018-07-09T19:09:04.566Z,99.90
2018-07-09T19:11:33.729Z,99.90
2018-07-09T19:16:31.976Z,99.90
2018-07-09T19:19:12.493Z,99.90
2018-07-09T19:24:15.224Z,99.90
2018-07-09T19:31:40.192Z,99.90
2018-07-09T19:34:12.318Z,99.90
2018-07-09T19:36:40.443Z,99.90
2018-07-09T19:39:09.301Z,99.90
2018-07-09T19:41:37.656Z,99.90
2018-07-09T19:44:05.702Z,99.90
2018-07-09T19:49:02.759Z,99.90
2018-07-09T19:51:30.934Z,99.90
2018-07-09T19:56:27.456Z,99.90
2018-07-09T20:01:23.824Z,99.90
2018-07-09T20:03:51.966Z,99.90
2018-07-09T20:06:20.811Z,99.90
2018-07-09T20:08:54.305Z,99.90
2018-07-09T20:11:27.756Z,99.90
2018-07-09T20:14:03.017Z,99.90
2018-07-09T20:16:36.458Z,99.90
2018-07-09T20:19:04.552Z,99.90
2018-07-09T20:21:32.624Z,99.90
2018-07-09T20:24:02.487Z,99.90
2018-07-09T20:26:30.558Z,99.90
2018-07-09T20:31:26.837Z,99.90
2018-07-09T20:33:55.265Z,99.90
2018-07-09T20:36:24.167Z,99.90
2018-07-09T20:38:52.230Z,99.90
2018-07-09T20:41:20.521Z,99.90
2018-07-09T20:43:48.659Z,99.90
2018-07-09T20:48:44.970Z,99.90
2018-07-09T20:51:13.071Z,99.90
2018-07-09T20:53:41.136Z,99.90
2018-07-09T21:01:06.042Z,99.90
2018-07-09T21:06:02.311Z,99.90
2018-07-09T21:08:30.394Z,99.90
2018-07-09T21:10:58.470Z,99.90
2018-07-09T21:15:58.712Z,99.90
2018-07-09T21:20:55.408Z,99.90
2018-07-09T21:25:51.847Z,99.90
2018-07-09T21:28:19.907Z,99.90
2018-07-09T21:30:47.951Z,99.90
2018-07-09T21:33:15.981Z,99.90
2018-07-09T21:35:44.047Z,99.90
2018-07-09T21:38:12.068Z,99.90
2018-07-09T21:40:40.071Z,99.90
2018-07-09T21:43:08.111Z,99.90
2018-07-09T21:50:33.123Z,99.90
2018-07-09T21:53:01.182Z,99.90
2018-07-09T21:55:29.215Z,99.90
2018-07-09T21:57:57.488Z,99.90
2018-07-09T22:00:25.534Z,99.90
2018-07-09T22:07:50.914Z,99.90
2018-07-09T22:10:19.072Z,99.90
2018-07-09T22:15:15.400Z,99.90
2018-07-09T22:17:43.383Z,99.90
2018-07-09T22:20:11.459Z,99.90
2018-07-09T22:22:39.485Z,99.90
2018-07-09T22:27:35.652Z,99.90
2018-07-09T22:32:33.003Z,99.90
2018-07-09T22:35:01.992Z,99.90
2018-07-09T22:37:31.340Z,99.90
2018-07-09T22:42:29.235Z,99.90
2018-07-09T22:44:58.369Z,99.90
2018-07-09T22:47:27.393Z,99.90
2018-07-09T22:49:56.449Z,99.90
2018-07-09T22:52:25.441Z,99.90
2018-07-09T22:55:05.921Z,99.90
2018-07-09T22:57:35.111Z,99.90
2018-07-09T23:00:04.127Z,99.90
2018-07-09T23:02:32.900Z,99.90
2018-07-09T23:05:01.854Z,99.90
2018-07-09T23:07:30.923Z,99.90
2018-07-09T23:10:11.202Z,99.90
2018-07-09T23:17:03.787Z,99.90
2018-07-09T23:19:42.940Z,99.90
2018-07-09T23:22:15.245Z,99.90
2018-07-09T23:24:43.340Z,99.90
2018-07-09T23:27:11.348Z,99.90
2018-07-09T23:29:39.344Z,99.90
2018-07-09T23:32:07.398Z,99.90
2018-07-09T23:34:35.501Z,99.90
2018-07-09T23:37:03.551Z,99.90
2018-07-09T23:39:32.499Z,99.90
2018-07-09T23:42:00.572Z,99.90
2018-07-09T23:44:28.555Z,99.90
2018-07-09T23:46:56.626Z,99.90
2018-07-09T23:49:24.789Z,99.90
2018-07-09T23:51:53.105Z,99.90
2018-07-09T23:54:21.181Z,99.90
